HBA weather

Hobart International Airport
Hobart, Tasmania, Australia

Public forecast

Using degrees Celsius for public forecast. Weather courtesy of forecast.io.

METAR (pilot weather report)

Retrieved 2018/05/28 07:00 UTC (5 minutes ago):

YMHB 280700Z 01008KT CAVOK 16/08 Q1016

TAF (pilot weather forecast)

Retrieved 2018/05/28 06:37 UTC (28 minutes ago):

TAF YMHB 280510Z 2806/2906 36012G22KT 9999 FEW040 FM290000 36015G30KT 9999 -RA FEW040 SCT080